createdAt,value
2022-10-28T07:18:43.584Z,98971.69
2022-10-28T07:21:10.087Z,98971.77
2022-10-28T07:23:36.527Z,98969.46
2022-10-28T07:26:03.646Z,98969.91
2022-10-28T07:28:30.176Z,98969.72
2022-10-28T07:31:01.716Z,98966.77
2022-10-28T07:33:28.395Z,98963.27
2022-10-28T07:35:54.972Z,98960.20
2022-10-28T07:38:21.977Z,98961.23
2022-10-28T07:40:48.538Z,98954.64
2022-10-28T07:43:15.180Z,98954.40
2022-10-28T07:45:41.757Z,98956.92
2022-10-28T07:48:08.849Z,98957.19
2022-10-28T07:50:35.536Z,98952.68
2022-10-28T07:53:02.280Z,98954.84
2022-10-28T07:55:29.104Z,98946.80
2022-10-28T07:57:56.269Z,98944.34
2022-10-28T08:00:23.085Z,98941.61
2022-10-28T08:02:49.638Z,98940.70
2022-10-28T08:05:17.166Z,98937.98
2022-10-28T08:07:43.685Z,98937.14
2022-10-28T08:10:10.203Z,98938.45
2022-10-28T08:12:36.835Z,98940.60
2022-10-28T08:15:04.482Z,98937.58
2022-10-28T08:17:31.409Z,98935.77
2022-10-28T08:19:57.892Z,98936.77
2022-10-28T08:22:24.589Z,98934.41
2022-10-28T08:24:51.238Z,98933.57
2022-10-28T08:27:17.786Z,98930.91
2022-10-28T08:29:44.559Z,98931.90
2022-10-28T08:32:11.316Z,98931.55
2022-10-28T08:34:40.949Z,98931.19
2022-10-28T08:37:10.628Z,98931.36
2022-10-28T08:39:37.114Z,98932.39
2022-10-28T08:42:26.557Z,98933.36
2022-10-28T08:45:04.846Z,98931.80
2022-10-28T08:47:51.113Z,98933.41
2022-10-28T08:50:21.756Z,98928.53
2022-10-28T08:52:57.542Z,98931.86
2022-10-28T08:55:31.183Z,98929.05
2022-10-28T08:58:05.718Z,98929.94
2022-10-28T09:00:33.802Z,98929.80
2022-10-28T09:03:16.237Z,98924.48
2022-10-28T09:05:47.317Z,98924.95
2022-10-28T09:08:24.157Z,98924.38
2022-10-28T09:11:09.497Z,98920.58
2022-10-28T09:13:39.055Z,98918.67
2022-10-28T09:16:27.163Z,98921.08
2022-10-28T09:18:56.704Z,98920.43
2022-10-28T09:21:41.605Z,98918.54
2022-10-28T09:24:43.247Z,98919.52
2022-10-28T09:27:31.434Z,98918.27
2022-10-28T09:30:21.058Z,98917.11
2022-10-28T09:33:05.856Z,98915.14
2022-10-28T09:35:39.813Z,98916.61
2022-10-28T09:38:12.667Z,98914.61
2022-10-28T09:40:44.378Z,98913.08
2022-10-28T09:43:29.505Z,98913.92
2022-10-28T09:46:03.085Z,98910.51
2022-10-28T09:48:36.788Z,98908.16
2022-10-28T09:51:03.677Z,98910.40
2022-10-28T09:53:49.409Z,98909.39
2022-10-28T09:56:16.173Z,98903.80
2022-10-28T09:58:47.262Z,98906.52
2022-10-28T10:01:17.351Z,98906.20
2022-10-28T10:03:48.158Z,98907.01
2022-10-28T10:06:36.058Z,98902.20
2022-10-28T10:09:03.922Z,98894.92
2022-10-28T10:11:42.294Z,98892.38
2022-10-28T10:14:16.552Z,98893.69
2022-10-28T10:16:54.918Z,98892.73
2022-10-28T10:19:21.812Z,98885.53
2022-10-28T10:21:56.188Z,98880.75
2022-10-28T10:24:32.899Z,98882.10
2022-10-28T10:27:03.310Z,98878.48
2022-10-28T10:29:31.539Z,98877.31
2022-10-28T10:32:17.708Z,98874.46
2022-10-28T10:34:53.710Z,98875.94
2022-10-28T10:37:22.196Z,98870.73
2022-10-28T10:40:22.679Z,98871.71
2022-10-28T10:43:03.448Z,98869.06
2022-10-28T10:45:36.741Z,98867.78
2022-10-28T10:48:06.586Z,98858.77
2022-10-28T10:50:33.803Z,98858.21
2022-10-28T10:53:01.011Z,98858.46
2022-10-28T10:55:39.808Z,98853.94
2022-10-28T10:58:16.517Z,98851.83
2022-10-28T11:00:54.630Z,98850.49
2022-10-28T11:03:34.277Z,98845.32
2022-10-28T11:06:23.477Z,98845.77
2022-10-28T11:08:56.583Z,98843.12
2022-10-28T11:11:35.372Z,98845.27
2022-10-28T11:14:19.583Z,98840.35
2022-10-28T11:17:00.309Z,98831.56
2022-10-28T11:19:30.459Z,98831.83
2022-10-28T11:22:22.016Z,98829.89
2022-10-28T11:25:26.574Z,98828.75
2022-10-28T11:28:24.065Z,98824.33
2022-10-28T11:31:12.276Z,98826.34
2022-10-28T11:33:44.092Z,98828.00
2022-10-28T11:36:28.619Z,98822.00
2022-10-28T11:39:17.065Z,98822.94
2022-10-28T11:41:43.849Z,98819.84
2022-10-28T11:44:17.269Z,98815.65
2022-10-28T11:46:43.836Z,98817.75
2022-10-28T11:49:19.783Z,98816.79
2022-10-28T11:52:05.342Z,98811.38
2022-10-28T11:54:44.375Z,98809.07
2022-10-28T11:57:16.271Z,98804.45
2022-10-28T12:00:25.559Z,98802.65
2022-10-28T12:03:18.400Z,98802.97
2022-10-28T12:05:58.889Z,98798.00
2022-10-28T12:08:25.410Z,98792.65
2022-10-28T12:10:58.119Z,98788.63
2022-10-28T12:13:33.763Z,98783.77
2022-10-28T12:16:22.547Z,98783.45
2022-10-28T12:18:58.278Z,98787.73
2022-10-28T12:21:32.092Z,98787.67
2022-10-28T12:23:59.561Z,98785.00
2022-10-28T12:26:37.288Z,98780.94
2022-10-28T12:29:18.474Z,98770.03
2022-10-28T12:31:50.735Z,98768.27
2022-10-28T12:34:24.071Z,98770.05
2022-10-28T12:37:01.923Z,98764.85
2022-10-28T12:39:34.515Z,98764.45
2022-10-28T12:42:19.946Z,98759.30
2022-10-28T12:44:51.365Z,98760.77
2022-10-28T12:47:52.547Z,98761.98
2022-10-28T12:50:27.138Z,98756.60
2022-10-28T12:53:05.891Z,98756.20
2022-10-28T12:55:59.864Z,98755.21
2022-10-28T12:58:32.917Z,98756.61
2022-10-28T13:01:09.835Z,98750.91
2022-10-28T13:03:36.795Z,98753.62
2022-10-28T13:06:22.028Z,98755.59
2022-10-28T13:08:57.497Z,98757.48
2022-10-28T13:11:49.290Z,98754.90
2022-10-28T13:14:40.136Z,98751.90
2022-10-28T13:17:34.023Z,98754.65
2022-10-28T13:20:30.787Z,98751.96
2022-10-28T13:23:28.595Z,98753.61
2022-10-28T13:26:20.453Z,98751.60
2022-10-28T13:28:53.533Z,98755.30
2022-10-28T13:31:20.423Z,98757.77
2022-10-28T13:33:55.140Z,98757.41
2022-10-28T13:36:38.040Z,98757.42
2022-10-28T13:39:21.771Z,98755.54
2022-10-28T13:41:49.034Z,98757.39
2022-10-28T13:44:25.328Z,98751.48
2022-10-28T13:47:25.827Z,98748.16
2022-10-28T13:50:07.875Z,98747.02
2022-10-28T13:52:37.139Z,98750.33
2022-10-28T13:55:40.078Z,98752.20
2022-10-28T13:58:20.306Z,98750.33
2022-10-28T14:00:49.187Z,98751.83
2022-10-28T14:03:22.986Z,98747.50
2022-10-28T14:05:52.774Z,98745.95
2022-10-28T14:08:38.654Z,98747.79
2022-10-28T14:11:06.849Z,98746.38
2022-10-28T14:14:01.548Z,98747.39
2022-10-28T14:16:33.935Z,98746.36
2022-10-28T14:19:06.225Z,98750.84
2022-10-28T14:22:02.955Z,98750.39
2022-10-28T14:24:38.489Z,98751.77
2022-10-28T14:27:04.914Z,98748.70
2022-10-28T14:29:42.379Z,98751.00
2022-10-28T14:32:30.689Z,98753.88
2022-10-28T14:35:12.362Z,98751.53
2022-10-28T14:38:15.719Z,98754.79
2022-10-28T14:40:48.061Z,98758.09
2022-10-28T14:43:40.757Z,98758.02
2022-10-28T14:46:36.817Z,98755.86
2022-10-28T14:49:13.991Z,98757.56
2022-10-28T14:51:43.158Z,98762.41
2022-10-28T14:54:21.413Z,98760.02
2022-10-28T14:56:52.708Z,98759.98
2022-10-28T14:59:26.301Z,98757.22
2022-10-28T15:01:55.541Z,98756.59
2022-10-28T15:04:22.592Z,98756.98
2022-10-28T15:06:50.892Z,98753.70
2022-10-28T15:09:31.032Z,98755.37
2022-10-28T15:12:05.273Z,98750.02
2022-10-28T15:14:38.323Z,98751.26
2022-10-28T15:17:11.395Z,98753.30
2022-10-28T15:19:37.981Z,98753.83
2022-10-28T15:22:13.986Z,98753.95
2022-10-28T15:24:43.183Z,98755.39
2022-10-28T15:27:13.530Z,98761.06
2022-10-28T15:29:41.548Z,98758.95
2022-10-28T15:32:24.193Z,98757.05
2022-10-28T15:34:51.245Z,98754.97
2022-10-28T15:37:20.927Z,98755.59
2022-10-28T15:39:52.755Z,98754.63
2022-10-28T15:42:36.086Z,98751.66
2022-10-28T15:45:03.010Z,98754.47
2022-10-28T15:47:33.865Z,98757.59
2022-10-28T15:50:02.405Z,98752.61
2022-10-28T15:52:37.267Z,98749.80
2022-10-28T15:55:19.351Z,98746.01
2022-10-28T15:57:51.146Z,98750.30
2022-10-28T16:00:21.793Z,98756.86
2022-10-28T16:02:56.401Z,98760.40
2022-10-28T16:05:32.583Z,98760.88
2022-10-28T16:08:01.257Z,98760.34
2022-10-28T16:10:33.699Z,98761.02
2022-10-28T16:13:01.718Z,98763.56
2022-10-28T16:15:28.602Z,98763.06
2022-10-28T16:17:55.657Z,98762.83
2022-10-28T16:20:26.579Z,98760.24
2022-10-28T16:22:53.075Z,98763.92
2022-10-28T16:25:21.475Z,98764.34
2022-10-28T16:27:49.329Z,98768.00
2022-10-28T16:30:16.441Z,98767.94
2022-10-28T16:32:48.480Z,98774.96
2022-10-28T16:35:17.045Z,98773.70
2022-10-28T16:37:46.530Z,98779.20
2022-10-28T16:40:37.800Z,98779.02
2022-10-28T16:43:01.992Z,98782.94
2022-10-28T16:45:28.486Z,98781.48
2022-10-28T16:47:55.100Z,98786.64
2022-10-28T16:50:22.053Z,98783.33
2022-10-28T16:52:48.685Z,98780.91
2022-10-28T16:55:16.600Z,98775.44
2022-10-28T16:57:43.055Z,98775.30
2022-10-28T17:00:13.126Z,98781.02
2022-10-28T17:02:40.209Z,98785.02
2022-10-28T17:05:18.423Z,98789.23
2022-10-28T17:20:21.230Z,98783.14
2022-10-28T17:22:49.081Z,98781.14
2022-10-28T17:25:16.902Z,98785.47
2022-10-28T17:27:48.908Z,98786.23
2022-10-28T17:30:17.712Z,98785.54
2022-10-28T17:32:49.843Z,98781.75
2022-10-28T17:35:18.914Z,98787.98
2022-10-28T17:37:46.869Z,98790.04
2022-10-28T17:40:15.444Z,98792.48
2022-10-28T17:42:43.401Z,98796.48
2022-10-28T17:45:12.002Z,98799.14
2022-10-28T17:47:39.987Z,98799.65
2022-10-28T17:50:08.301Z,98801.14
2022-10-28T17:52:38.810Z,98796.67
2022-10-28T17:55:07.462Z,98795.12
2022-10-28T17:57:35.451Z,98797.64
2022-10-28T18:00:03.736Z,98797.77
2022-10-28T18:02:40.509Z,98795.70
2022-10-28T18:05:08.939Z,98793.77
2022-10-28T18:07:36.951Z,98794.59
2022-10-28T18:10:05.833Z,98790.05
2022-10-28T18:12:33.801Z,98790.88
2022-10-28T18:15:01.621Z,98787.30
2022-10-28T18:17:29.537Z,98790.86
2022-10-28T18:19:57.874Z,98789.08
2022-10-28T18:24:54.181Z,98792.35
2022-10-28T18:27:22.180Z,98790.71
2022-10-28T18:29:50.201Z,98788.43
2022-10-28T18:32:18.068Z,98788.25
2022-10-28T18:34:46.041Z,98786.08
2022-10-28T18:37:14.145Z,98786.50
2022-10-28T18:39:42.030Z,98785.13
2022-10-28T18:42:12.295Z,98784.05
2022-10-28T18:44:41.501Z,98784.79
2022-10-28T18:47:09.493Z,98782.55
2022-10-28T18:49:37.422Z,98782.06
2022-10-28T18:52:05.255Z,98776.23
2022-10-28T18:54:34.644Z,98780.48
2022-10-28T18:57:02.557Z,98785.09
2022-10-28T18:59:30.418Z,98788.99
2022-10-28T19:01:58.539Z,98789.73
2022-10-28T19:04:26.654Z,98790.98
2022-10-28T19:06:54.745Z,98792.75
2022-10-28T19:09:22.751Z,98800.58
2022-10-28T19:11:50.876Z,98802.16
2022-10-28T19:14:18.888Z,98800.88
2022-10-28T19:16:47.062Z,98803.84
2022-10-28T19:19:15.026Z,98806.60
2022-10-28T19:21:42.977Z,98809.14
2022-10-28T19:24:10.852Z,98808.54
2022-10-28T19:26:39.512Z,98819.02
2022-10-28T19:29:07.488Z,98819.86
2022-10-28T19:31:38.113Z,98821.96
2022-10-28T19:34:06.237Z,98820.10
2022-10-28T19:36:34.405Z,98820.29
2022-10-28T19:39:03.186Z,98822.52
2022-10-28T19:41:31.271Z,98822.69
2022-10-28T19:44:01.898Z,98825.95
2022-10-28T19:46:36.074Z,98823.95
2022-10-28T19:49:06.756Z,98825.65
2022-10-28T19:51:41.256Z,98820.65
2022-10-28T19:54:14.665Z,98827.88
2022-10-28T19:56:44.595Z,98826.44
2022-10-28T19:59:12.677Z,98826.86
2022-10-28T20:01:41.509Z,98830.76
2022-10-28T20:04:10.238Z,98827.35
2022-10-28T20:06:40.696Z,98825.36
2022-10-28T20:09:09.411Z,98823.56
2022-10-28T20:11:38.909Z,98822.98
2022-10-28T20:14:10.932Z,98819.30
2022-10-28T20:16:42.967Z,98820.38
2022-10-28T20:19:11.609Z,98821.25
2022-10-28T20:21:40.081Z,98824.47
2022-10-28T20:24:08.412Z,98825.27
2022-10-28T20:26:38.387Z,98826.83
2022-10-28T20:29:10.004Z,98828.87
2022-10-28T20:31:41.596Z,98831.96
2022-10-28T20:34:09.815Z,98830.06
2022-10-28T20:36:39.821Z,98830.71
2022-10-28T20:39:13.134Z,98836.29
2022-10-28T20:41:45.836Z,98841.81
2022-10-28T20:44:15.204Z,98840.47
2022-10-28T20:46:45.250Z,98840.51
2022-10-28T20:49:13.711Z,98837.63
2022-10-28T20:51:42.563Z,98834.73
2022-10-28T20:54:10.751Z,98834.77
2022-10-28T20:56:40.479Z,98839.11
2022-10-28T20:59:08.832Z,98840.44
2022-10-28T21:01:39.774Z,98841.81
2022-10-28T21:04:11.058Z,98842.52
2022-10-28T21:06:40.741Z,98841.54
2022-10-28T21:09:09.550Z,98848.33
2022-10-28T21:11:37.799Z,98850.61
2022-10-28T21:14:06.078Z,98850.35
2022-10-28T21:16:37.136Z,98845.02
2022-10-28T21:19:05.868Z,98842.70
2022-10-28T21:21:34.194Z,98844.41
2022-10-28T21:24:10.828Z,98847.67
2022-10-28T21:26:49.808Z,98850.42
2022-10-28T21:29:20.022Z,98849.98
2022-10-28T21:31:47.985Z,98853.11
2022-10-28T21:34:16.375Z,98852.16
2022-10-28T21:36:44.559Z,98854.30
2022-10-28T21:39:12.685Z,98858.88
2022-10-28T21:41:40.600Z,98858.42
2022-10-28T21:44:10.041Z,98859.52
2022-10-28T21:46:38.327Z,98862.73
2022-10-28T21:49:06.273Z,98861.38
2022-10-28T21:51:34.265Z,98857.08
2022-10-28T21:54:02.225Z,98859.80
2022-10-28T21:56:30.586Z,98859.19
2022-10-28T21:58:58.695Z,98857.30
2022-10-28T22:01:26.643Z,98851.85
2022-10-28T22:03:56.106Z,98847.40
2022-10-28T22:06:24.633Z,98845.02
2022-10-28T22:08:54.126Z,98842.81
2022-10-28T22:11:24.175Z,98840.41
2022-10-28T22:14:00.748Z,98842.48
2022-10-28T22:16:30.939Z,98840.83
2022-10-28T22:19:00.994Z,98838.09
2022-10-28T22:21:32.398Z,98839.67
2022-10-28T22:24:00.456Z,98840.36
2022-10-28T22:26:30.843Z,98836.36
2022-10-28T22:29:01.116Z,98831.06
2022-10-28T22:31:31.759Z,98828.23
2022-10-28T22:34:00.839Z,98828.21
2022-10-28T22:36:30.453Z,98828.71
2022-10-28T22:38:58.994Z,98830.36
2022-10-28T22:41:29.046Z,98834.14
2022-10-28T22:44:00.233Z,98832.40
2022-10-28T22:46:37.793Z,98836.03
2022-10-28T22:49:06.993Z,98836.86
2022-10-28T22:51:35.126Z,98835.80
2022-10-28T22:54:03.121Z,98831.29
2022-10-28T22:56:31.365Z,98831.50
2022-10-28T22:59:01.421Z,98831.98
2022-10-28T23:01:55.617Z,98828.63
2022-10-28T23:04:49.879Z,98834.08
2022-10-28T23:07:17.782Z,98831.23
2022-10-28T23:09:45.639Z,98830.98
2022-10-28T23:12:13.838Z,98829.38
2022-10-28T23:14:41.876Z,98830.02
2022-10-28T23:17:10.063Z,98826.53
2022-10-28T23:19:37.970Z,98824.98
2022-10-28T23:22:05.933Z,98821.73
2022-10-28T23:24:34.046Z,98816.68
2022-10-28T23:27:01.965Z,98811.72
2022-10-28T23:29:30.047Z,98812.70
2022-10-28T23:31:57.982Z,98807.50
2022-10-28T23:34:28.196Z,98808.45
2022-10-28T23:36:59.017Z,98806.94
2022-10-28T23:39:27.197Z,98808.84
2022-10-28T23:41:55.344Z,98804.20
2022-10-28T23:44:23.469Z,98801.51
2022-10-28T23:46:51.645Z,98809.09
2022-10-28T23:49:19.687Z,98806.96
2022-10-28T23:51:47.663Z,98807.02
2022-10-28T23:54:15.836Z,98803.77
2022-10-28T23:56:43.941Z,98804.55
2022-10-28T23:59:11.996Z,98805.14
